CheckWX is a tool to help pilots better visualize weather data.  It is not intended as a substitute for an official pre-flight weather briefing.

21:29:50 UTC

KCHD METAR
Chandler Municipal Airport
Chandler, Arizona, USA
Current

43 mins ago

KCHD 232047Z 00000KT 10SM CLR 19/08 A3006
Observed
Jan-23 @ 20:47 UTC
Visibility
10 SM
Flight Rules
VFR
Cloud Levels
  • Clear skies
Temperature
19°C / 66°F
Dewpoint
C / 46°F
Humidity
49%
Altimeter
30.06" Hg
Pressure
1017.92 hPa
Previous

2 hours ago

KCHD 231947Z 00000KT 10SM CLR 18/07 A3009
Observed
Jan-23 @ 19:47 UTC
Visibility
10 SM
Flight Rules
VFR
Cloud Levels
  • Clear skies
Temperature
18°C / 64°F
Dewpoint
C / 45°F
Humidity
49%
Altimeter
30.09" Hg
Pressure
1018.92 hPa
Previous

3 hours ago

KCHD 231847Z 00000KT 10SM CLR 15/09 A3015
Observed
Jan-23 @ 18:47 UTC
Visibility
10 SM
Flight Rules
VFR
Cloud Levels
  • Clear skies
Temperature
15°C / 59°F
Dewpoint
C / 48°F
Humidity
68%
Altimeter
30.15" Hg
Pressure
1021.02 hPa